createdAt,value
2018-07-24T00:02:14.309Z,98478.13
2018-07-24T00:04:42.874Z,98476.56
2018-07-24T00:07:11.446Z,98478.30
2018-07-24T00:09:40.051Z,98481.83
2018-07-24T00:12:08.573Z,98482.28
2018-07-24T00:14:37.309Z,98479.36
2018-07-24T00:17:05.798Z,98482.86
2018-07-24T00:19:34.287Z,98475.35
2018-07-24T00:22:02.839Z,98480.29
2018-07-24T00:24:31.477Z,98463.63
2018-07-24T00:27:00.177Z,98468.06
2018-07-24T00:29:28.710Z,98471.68
2018-07-24T00:31:57.814Z,98468.22
2018-07-24T00:34:26.278Z,98470.16
2018-07-24T00:36:54.762Z,98466.29
2018-07-24T00:39:23.218Z,98462.94
2018-07-24T00:41:52.038Z,98455.84
2018-07-24T00:44:20.575Z,98460.05
2018-07-24T00:46:49.110Z,98457.75
2018-07-24T00:49:17.745Z,98454.58
2018-07-24T00:51:46.639Z,98450.22
2018-07-24T00:54:15.300Z,98450.27
2018-07-24T00:56:48.679Z,98449.28
2018-07-24T00:59:17.146Z,98453.17
2018-07-24T01:01:45.678Z,98443.17
2018-07-24T01:04:14.249Z,98443.25
2018-07-24T01:06:42.813Z,98440.47
2018-07-24T01:09:11.951Z,98436.28
2018-07-24T01:11:40.986Z,98436.59
2018-07-24T01:14:10.125Z,98432.53
2018-07-24T01:16:38.790Z,98433.25
2018-07-24T01:19:07.405Z,98429.38
2018-07-24T01:21:36.064Z,98435.98
2018-07-24T01:24:04.638Z,98435.28
2018-07-24T01:26:33.153Z,98429.86
2018-07-24T01:29:01.842Z,98432.27
2018-07-24T01:31:30.393Z,98427.23
2018-07-24T01:33:59.186Z,98432.95
2018-07-24T01:36:27.653Z,98430.98
2018-07-24T01:38:56.253Z,98429.31
2018-07-24T01:41:25.374Z,98428.81
2018-07-24T01:43:53.888Z,98428.96
2018-07-24T01:46:22.577Z,98427.97
2018-07-24T01:48:51.938Z,98426.83
2018-07-24T01:51:20.750Z,98431.11
2018-07-24T01:53:49.250Z,98433.31
2018-07-24T02:02:41.394Z,98429.93
2018-07-24T02:05:11.357Z,98430.81
2018-07-24T02:07:40.118Z,98428.95
2018-07-24T02:10:08.606Z,98429.48
2018-07-24T02:12:37.291Z,98431.02
2018-07-24T02:15:06.793Z,98430.71
2018-07-24T02:17:36.089Z,98425.98
2018-07-24T02:20:05.047Z,98422.28
2018-07-24T02:22:33.641Z,98417.72
2018-07-24T02:25:02.346Z,98422.32
2018-07-24T02:27:31.858Z,98416.89
2018-07-24T02:30:00.657Z,98417.40
2018-07-24T02:32:29.365Z,98421.98
2018-07-24T02:34:58.378Z,98421.30
2018-07-24T02:37:26.989Z,98417.91
2018-07-24T02:39:55.544Z,98416.72
2018-07-24T02:42:24.755Z,98413.86
2018-07-24T02:44:53.334Z,98419.95
2018-07-24T02:47:21.765Z,98421.14
2018-07-24T02:49:50.400Z,98421.30
2018-07-24T02:52:18.879Z,98416.05
2018-07-24T02:54:47.375Z,98428.41
2018-07-24T02:57:15.908Z,98418.95
2018-07-24T02:59:44.554Z,98420.14
2018-07-24T03:02:13.115Z,98422.17
2018-07-24T03:04:41.698Z,98416.28
2018-07-24T03:07:10.474Z,98416.64
2018-07-24T03:09:39.088Z,98416.63
2018-07-24T03:12:07.680Z,98411.61
2018-07-24T03:14:36.232Z,98415.33
2018-07-24T03:17:04.781Z,98417.73
2018-07-24T03:19:33.539Z,98422.47
2018-07-24T03:22:02.059Z,98426.17
2018-07-24T03:24:30.625Z,98421.80
2018-07-24T03:26:59.266Z,98420.11
2018-07-24T03:29:27.823Z,98420.11
2018-07-24T03:31:56.444Z,98413.37
2018-07-24T03:34:25.027Z,98421.30
2018-07-24T03:36:53.738Z,98420.80
2018-07-24T03:39:22.331Z,98418.26
2018-07-24T03:41:51.226Z,98414.38
2018-07-24T03:44:20.702Z,98415.89
2018-07-24T03:46:49.327Z,98412.34
2018-07-24T03:49:17.992Z,98415.75
2018-07-24T03:51:46.572Z,98414.04
2018-07-24T03:54:15.056Z,98414.05
2018-07-24T03:56:43.562Z,98412.03
2018-07-24T03:59:12.151Z,98411.33
2018-07-24T04:01:40.694Z,98416.75
2018-07-24T04:04:09.146Z,98419.45
2018-07-24T04:06:37.838Z,98421.14
2018-07-24T04:09:08.643Z,98421.14
2018-07-24T04:11:37.693Z,98424.83
2018-07-24T04:14:06.150Z,98421.13
2018-07-24T04:16:34.817Z,98421.47
2018-07-24T04:19:03.335Z,98421.97
2018-07-24T04:21:31.927Z,98417.43
2018-07-24T04:24:00.385Z,98415.72
2018-07-24T04:26:28.885Z,98418.11
2018-07-24T04:28:57.575Z,98416.74
2018-07-24T04:31:26.089Z,98412.70
2018-07-24T04:33:54.662Z,98413.36
2018-07-24T04:36:23.155Z,98404.24
2018-07-24T04:38:51.673Z,98407.25
2018-07-24T04:41:20.338Z,98402.37
2018-07-24T04:43:48.864Z,98404.52
2018-07-24T04:46:17.718Z,98402.83
2018-07-24T04:48:46.297Z,98402.31
2018-07-24T04:51:15.004Z,98403.13
2018-07-24T04:53:44.287Z,98404.12
2018-07-24T04:56:12.967Z,98409.17
2018-07-24T04:58:41.562Z,98410.48
2018-07-24T05:01:10.202Z,98405.04
2018-07-24T05:03:38.689Z,98403.36
2018-07-24T05:06:07.211Z,98406.88
2018-07-24T05:08:35.719Z,98404.97
2018-07-24T05:11:04.242Z,98405.27
2018-07-24T05:13:32.714Z,98404.55
2018-07-24T05:16:01.335Z,98402.83
2018-07-24T05:18:29.942Z,98404.17
2018-07-24T05:20:58.491Z,98409.36
2018-07-24T05:23:27.393Z,98405.72
2018-07-24T05:25:56.549Z,98400.45
2018-07-24T05:28:25.406Z,98410.52
2018-07-24T05:30:53.965Z,98405.05
2018-07-24T05:33:22.515Z,98410.42
2018-07-24T05:35:51.034Z,98414.59
2018-07-24T05:38:19.589Z,98417.53
2018-07-24T05:40:48.342Z,98417.31
2018-07-24T05:43:16.853Z,98422.16
2018-07-24T05:45:45.358Z,98414.41
2018-07-24T05:48:14.118Z,98416.92
2018-07-24T05:50:42.838Z,98421.44
2018-07-24T05:53:11.455Z,98424.73
2018-07-24T05:55:39.962Z,98429.91
2018-07-24T05:58:08.438Z,98434.12
2018-07-24T06:00:36.945Z,98433.20
2018-07-24T06:03:05.435Z,98436.53
2018-07-24T06:05:33.989Z,98438.80
2018-07-24T06:08:03.766Z,98440.05
2018-07-24T06:10:32.341Z,98435.18
2018-07-24T06:13:00.872Z,98439.28
2018-07-24T06:15:29.329Z,98437.81
2018-07-24T06:17:57.907Z,98447.36
2018-07-24T06:20:26.700Z,98447.42
2018-07-24T06:22:55.457Z,98444.59
2018-07-24T06:25:24.280Z,98439.95
2018-07-24T06:27:52.792Z,98442.23
2018-07-24T06:30:21.272Z,98433.14
2018-07-24T06:32:49.790Z,98441.51
2018-07-24T06:35:18.343Z,98440.85
2018-07-24T06:37:46.923Z,98439.48
2018-07-24T06:40:15.405Z,98438.25
2018-07-24T06:42:43.900Z,98438.31
2018-07-24T06:45:12.470Z,98439.59
2018-07-24T06:47:41.099Z,98438.86
2018-07-24T06:50:09.702Z,98438.33
2018-07-24T06:52:38.502Z,98435.05
2018-07-24T06:55:07.090Z,98431.33
2018-07-24T06:57:35.695Z,98428.66
2018-07-24T07:00:04.341Z,98426.41
2018-07-24T07:02:32.909Z,98428.12
2018-07-24T07:05:02.016Z,98426.48
2018-07-24T07:07:30.622Z,98425.58
2018-07-24T07:09:59.102Z,98427.52
2018-07-24T07:12:27.950Z,98426.34
2018-07-24T07:14:56.590Z,98425.55
2018-07-24T07:17:25.084Z,98429.33
2018-07-24T07:19:53.582Z,98424.52
2018-07-24T07:22:22.147Z,98422.87
2018-07-24T07:24:50.632Z,98418.50
2018-07-24T07:27:19.210Z,98426.88
2018-07-24T07:29:47.729Z,98420.75
2018-07-24T07:32:16.440Z,98416.88
2018-07-24T07:34:44.943Z,98412.66
2018-07-24T07:37:13.438Z,98417.38
2018-07-24T07:39:42.099Z,98415.80
2018-07-24T07:42:10.830Z,98410.98
2018-07-24T07:44:39.299Z,98407.89
2018-07-24T07:47:08.119Z,98405.16
2018-07-24T07:49:36.746Z,98400.33
2018-07-24T07:52:05.303Z,98404.52
2018-07-24T07:54:33.831Z,98399.11
2018-07-24T07:57:02.307Z,98396.21
2018-07-24T07:59:30.843Z,98399.41
2018-07-24T08:01:59.655Z,98402.67
2018-07-24T08:04:28.228Z,98395.20
2018-07-24T08:06:57.118Z,98390.01
2018-07-24T08:09:25.653Z,98385.33
2018-07-24T08:11:54.474Z,98390.34
2018-07-24T08:14:23.234Z,98388.83
2018-07-24T08:16:51.955Z,98383.89
2018-07-24T08:19:20.603Z,98382.08
2018-07-24T08:21:49.171Z,98384.41
2018-07-24T08:24:17.715Z,98385.77
2018-07-24T08:26:46.345Z,98385.64
2018-07-24T08:29:14.849Z,98389.41
2018-07-24T08:31:43.475Z,98380.44
2018-07-24T08:34:11.996Z,98382.81
2018-07-24T08:36:40.459Z,98379.70
2018-07-24T08:39:11.162Z,98386.45
2018-07-24T08:41:39.921Z,98379.11
2018-07-24T08:44:08.540Z,98380.59
2018-07-24T08:46:37.106Z,98376.92
2018-07-24T08:49:06.923Z,98373.44
2018-07-24T08:51:35.357Z,98370.31
2018-07-24T08:54:04.161Z,98368.09
2018-07-24T08:56:32.550Z,98370.55
2018-07-24T08:59:01.159Z,98360.73
2018-07-24T09:01:29.814Z,98359.52
2018-07-24T09:03:58.455Z,98355.39
2018-07-24T09:06:26.962Z,98352.73
2018-07-24T09:08:56.102Z,98350.02
2018-07-24T09:11:24.657Z,98343.98
2018-07-24T09:13:53.306Z,98349.88
2018-07-24T09:16:21.858Z,98347.33
2018-07-24T09:18:50.485Z,98347.61
2018-07-24T09:21:18.994Z,98344.08
2018-07-24T09:23:47.562Z,98350.36
2018-07-24T09:26:16.067Z,98348.69
2018-07-24T09:28:44.658Z,98346.37
2018-07-24T09:31:13.221Z,98343.61
2018-07-24T09:33:41.935Z,98343.90
2018-07-24T09:36:10.519Z,98346.62
2018-07-24T09:38:39.030Z,98342.76
2018-07-24T09:41:07.570Z,98338.97
2018-07-24T09:43:36.026Z,98333.38
2018-07-24T09:46:04.567Z,98333.95
2018-07-24T09:48:33.198Z,98331.97
2018-07-24T09:51:01.793Z,98336.45
2018-07-24T09:53:30.582Z,98332.92
2018-07-24T09:55:59.292Z,98336.59
2018-07-24T09:58:27.811Z,98328.41
2018-07-24T10:01:01.712Z,98334.22
2018-07-24T10:03:30.213Z,98329.19
2018-07-24T10:05:58.723Z,98323.65
2018-07-24T10:08:27.605Z,98329.69
2018-07-24T10:10:56.600Z,98321.98
2018-07-24T10:13:25.122Z,98319.16
2018-07-24T10:15:53.820Z,98320.28
2018-07-24T10:18:22.290Z,98314.06
2018-07-24T10:20:50.861Z,98318.11
2018-07-24T10:23:19.451Z,98316.84
2018-07-24T10:25:48.160Z,98310.27
2018-07-24T10:28:16.771Z,98309.91
2018-07-24T10:30:45.432Z,98304.94
2018-07-24T10:33:14.022Z,98292.20
2018-07-24T10:35:42.619Z,98296.56
2018-07-24T10:38:11.151Z,98298.09
2018-07-24T10:40:39.963Z,98294.00
2018-07-24T10:43:08.678Z,98291.48
2018-07-24T10:45:37.218Z,98277.13
2018-07-24T10:48:05.794Z,98280.75
2018-07-24T10:50:34.299Z,98279.58
2018-07-24T10:53:02.970Z,98284.05
2018-07-24T10:55:31.500Z,98281.21
2018-07-24T10:58:00.307Z,98275.30
2018-07-24T11:00:28.942Z,98272.32
2018-07-24T11:02:57.534Z,98273.20
2018-07-24T11:05:26.019Z,98270.80
2018-07-24T11:07:56.610Z,98272.95
2018-07-24T11:10:25.058Z,98276.36
2018-07-24T11:12:53.792Z,98271.44
2018-07-24T11:15:22.573Z,98268.73
2018-07-24T11:17:51.146Z,98266.23
2018-07-24T11:20:19.728Z,98273.34
2018-07-24T11:22:48.886Z,98260.75
2018-07-24T11:25:17.156Z,98267.17
2018-07-24T11:27:45.798Z,98269.67
2018-07-24T11:30:14.353Z,98265.27
2018-07-24T11:32:42.830Z,98260.31
2018-07-24T11:35:11.439Z,98256.24
2018-07-24T11:37:40.031Z,98255.80
2018-07-24T11:40:08.642Z,98252.68
2018-07-24T11:42:37.261Z,98256.33
2018-07-24T11:45:06.610Z,98247.45
2018-07-24T11:47:35.299Z,98245.45
2018-07-24T11:50:03.932Z,98247.66
2018-07-24T11:52:32.558Z,98242.88
2018-07-24T11:55:01.116Z,98233.37
2018-07-24T11:57:29.658Z,98238.23
2018-07-24T11:59:58.145Z,98239.06
2018-07-24T12:02:26.806Z,98233.41
2018-07-24T12:04:55.384Z,98229.42
2018-07-24T12:07:23.933Z,98229.44
2018-07-24T12:09:52.473Z,98217.70
2018-07-24T12:12:21.001Z,98223.93
2018-07-24T12:14:50.574Z,98213.85
2018-07-24T12:17:19.203Z,98208.80
2018-07-24T12:19:47.743Z,98212.80
2018-07-24T12:22:16.261Z,98203.19
2018-07-24T12:24:44.759Z,98213.12
2018-07-24T12:27:13.368Z,98203.55
2018-07-24T12:29:41.958Z,98197.64
2018-07-24T12:32:10.599Z,98202.75
2018-07-24T12:34:39.311Z,98204.11
2018-07-24T12:37:07.862Z,98197.45
2018-07-24T12:39:40.886Z,98190.34
2018-07-24T12:42:09.373Z,98197.55
2018-07-24T12:44:37.846Z,98190.87
2018-07-24T12:47:06.681Z,98194.85
2018-07-24T12:49:35.216Z,98203.66
2018-07-24T12:52:03.768Z,98196.38
2018-07-24T12:54:32.233Z,98190.67
2018-07-24T12:57:00.736Z,98184.55
2018-07-24T12:59:29.213Z,98187.76
2018-07-24T13:01:57.800Z,98181.53
2018-07-24T13:04:26.290Z,98177.95
2018-07-24T13:06:54.814Z,98171.63
2018-07-24T13:09:23.397Z,98176.34
2018-07-24T13:11:51.946Z,98177.95
2018-07-24T13:14:20.498Z,98170.53
2018-07-24T13:16:49.123Z,98170.89
2018-07-24T13:19:17.786Z,98170.80
2018-07-24T13:21:46.403Z,98171.56
2018-07-24T13:24:15.003Z,98168.99
2018-07-24T13:26:43.530Z,98167.50
2018-07-24T13:29:12.043Z,98168.60
2018-07-24T13:31:40.606Z,98164.92
2018-07-24T13:34:09.265Z,98167.84
2018-07-24T13:36:37.742Z,98159.25
2018-07-24T13:39:09.042Z,98162.00
2018-07-24T13:41:37.595Z,98171.95
2018-07-24T13:44:06.206Z,98169.38
2018-07-24T13:46:38.778Z,98168.62
2018-07-24T13:49:07.431Z,98164.00
2018-07-24T13:51:36.051Z,98154.45
2018-07-24T13:54:04.841Z,98141.13
2018-07-24T13:56:33.472Z,98146.12
2018-07-24T13:59:02.251Z,98137.47
2018-07-24T14:01:30.678Z,98146.66
2018-07-24T14:03:59.146Z,98140.51
2018-07-24T14:06:27.643Z,98143.34
2018-07-24T14:08:56.202Z,98144.56
2018-07-24T14:11:24.753Z,98138.76
2018-07-24T14:13:53.396Z,98129.50
2018-07-24T14:16:21.926Z,98132.93
2018-07-24T14:18:50.614Z,98125.61
2018-07-24T14:21:19.170Z,98128.78
2018-07-24T14:23:47.745Z,98118.48
2018-07-24T14:26:16.856Z,98116.81
2018-07-24T14:28:45.410Z,98111.06
2018-07-24T14:31:13.933Z,98111.30
2018-07-24T14:33:42.467Z,98117.48
2018-07-24T14:36:11.209Z,98124.09
2018-07-24T14:38:39.737Z,98123.05
2018-07-24T14:41:08.377Z,98123.23
2018-07-24T14:43:36.974Z,98121.91
2018-07-24T14:46:05.520Z,98116.61
2018-07-24T14:48:34.215Z,98118.01
2018-07-24T14:51:02.806Z,98114.14
2018-07-24T14:53:31.823Z,98120.55
2018-07-24T14:56:00.367Z,98113.86
2018-07-24T14:58:28.914Z,98106.73
2018-07-24T15:00:57.538Z,98109.80
2018-07-24T15:03:26.106Z,98095.44
2018-07-24T15:05:54.606Z,98108.84
2018-07-24T15:08:23.506Z,98104.33
2018-07-24T15:10:54.515Z,98101.94
2018-07-24T15:13:23.573Z,98089.04
2018-07-24T15:15:52.325Z,98087.27
2018-07-24T15:18:21.027Z,98086.63
2018-07-24T15:20:49.619Z,98075.96
2018-07-24T15:23:18.218Z,98082.16
2018-07-24T15:27:05.900Z,98092.00
2018-07-24T15:29:34.505Z,98089.66
2018-07-24T15:32:03.291Z,98087.84
2018-07-24T15:34:31.875Z,98083.91
2018-07-24T15:37:00.397Z,98089.11
2018-07-24T15:39:28.897Z,98083.77
2018-07-24T15:41:57.390Z,98093.26
2018-07-24T15:44:26.030Z,98082.68
2018-07-24T15:46:54.612Z,98089.08
2018-07-24T15:49:23.114Z,98082.84
2018-07-24T15:51:51.999Z,98087.83
2018-07-24T15:54:20.502Z,98074.50
2018-07-24T15:56:49.017Z,98087.67
2018-07-24T15:59:17.546Z,98090.02
2018-07-24T16:01:46.218Z,98085.17
2018-07-24T16:04:14.786Z,98082.19
2018-07-24T16:06:43.347Z,98083.17
2018-07-24T16:09:13.286Z,98082.84
2018-07-24T16:11:41.942Z,98081.67
2018-07-24T16:14:10.975Z,98080.95
2018-07-24T16:16:39.658Z,98086.42
2018-07-24T16:19:08.389Z,98090.35
2018-07-24T16:21:36.977Z,98091.30
2018-07-24T16:24:05.682Z,98085.72
2018-07-24T16:26:34.206Z,98091.04
2018-07-24T16:29:02.711Z,98088.37
2018-07-24T16:31:31.270Z,98087.20
2018-07-24T16:33:59.797Z,98080.63
2018-07-24T16:36:28.306Z,98081.57
2018-07-24T16:38:57.181Z,98079.44
2018-07-24T16:41:25.958Z,98076.73
2018-07-24T16:43:54.602Z,98082.64
2018-07-24T16:46:23.114Z,98081.09
2018-07-24T16:48:51.706Z,98071.15
2018-07-24T16:51:23.984Z,98076.48
2018-07-24T16:53:52.714Z,98087.86
2018-07-24T16:56:21.396Z,98075.23
2018-07-24T16:58:50.425Z,98076.27
2018-07-24T17:01:19.249Z,98075.09
2018-07-24T17:03:47.795Z,98070.53
2018-07-24T17:06:16.385Z,98076.44
2018-07-24T17:08:45.071Z,98083.63
2018-07-24T17:11:13.677Z,98081.28
2018-07-24T17:13:42.280Z,98078.95
2018-07-24T17:16:10.825Z,98080.34
2018-07-24T17:18:39.354Z,98075.66
2018-07-24T17:21:07.938Z,98073.09
2018-07-24T17:23:36.568Z,98081.95
2018-07-24T17:26:05.183Z,98074.52
2018-07-24T17:28:33.880Z,98072.66
2018-07-24T17:31:02.499Z,98072.41
2018-07-24T17:33:31.059Z,98075.50
2018-07-24T17:35:59.869Z,98074.40
2018-07-24T17:38:28.399Z,98076.61
2018-07-24T17:40:57.126Z,98081.38
2018-07-24T17:43:25.719Z,98083.58
2018-07-24T17:45:54.408Z,98078.83
2018-07-24T17:48:23.104Z,98083.52
2018-07-24T17:50:51.849Z,98082.89
2018-07-24T17:53:21.035Z,98087.98
2018-07-24T17:55:49.604Z,98091.27
2018-07-24T17:58:18.429Z,98089.66
2018-07-24T18:00:47.054Z,98085.91
2018-07-24T18:03:15.701Z,98089.58
2018-07-24T18:05:44.297Z,98092.86
2018-07-24T18:08:13.041Z,98092.74
2018-07-24T18:10:41.554Z,98089.84
2018-07-24T18:13:10.070Z,98091.42
2018-07-24T18:15:38.635Z,98097.84
2018-07-24T18:18:07.250Z,98102.08
2018-07-24T18:20:35.795Z,98106.23
2018-07-24T18:23:04.349Z,98101.83
2018-07-24T18:25:32.919Z,98097.39
2018-07-24T18:28:01.462Z,98105.98
2018-07-24T18:30:30.025Z,98099.55
2018-07-24T18:32:58.511Z,98102.59
2018-07-24T18:35:27.033Z,98107.55
2018-07-24T18:37:55.675Z,98104.52
2018-07-24T18:45:13.295Z,98105.72
2018-07-24T18:47:42.131Z,98108.69
2018-07-24T18:50:10.751Z,98113.53
2018-07-24T18:52:39.206Z,98116.16
2018-07-24T18:55:07.761Z,98115.04
2018-07-24T18:57:36.274Z,98118.34
2018-07-24T19:00:05.175Z,98118.50
2018-07-24T19:02:34.358Z,98120.81
2018-07-24T19:05:03.066Z,98113.31
2018-07-24T19:07:31.522Z,98124.00
2018-07-24T19:10:00.008Z,98122.78
2018-07-24T19:12:28.541Z,98127.40
2018-07-24T19:14:57.138Z,98124.67
2018-07-24T19:17:25.670Z,98132.53
2018-07-24T19:19:54.458Z,98131.66
2018-07-24T19:22:22.993Z,98128.28
2018-07-24T19:24:51.568Z,98131.85
2018-07-24T19:27:20.129Z,98122.15
2018-07-24T19:29:48.699Z,98130.88
2018-07-24T19:32:17.207Z,98134.13
2018-07-24T19:34:45.837Z,98128.81
2018-07-24T19:37:14.326Z,98135.99
2018-07-24T19:39:42.839Z,98133.53
2018-07-24T19:42:11.391Z,98140.01
2018-07-24T19:44:39.912Z,98143.92
2018-07-24T19:47:08.530Z,98147.25
2018-07-24T19:49:37.125Z,98149.89
2018-07-24T19:52:05.636Z,98152.09
2018-07-24T19:54:34.247Z,98157.42
2018-07-24T19:57:02.826Z,98155.81
2018-07-24T19:59:31.294Z,98161.80
2018-07-24T20:01:59.899Z,98162.85
2018-07-24T20:04:28.357Z,98161.97
2018-07-24T20:06:56.954Z,98161.03
2018-07-24T20:09:25.428Z,98167.72
2018-07-24T20:11:54.126Z,98170.03
2018-07-24T20:14:22.619Z,98174.03
2018-07-24T20:16:51.293Z,98175.06
2018-07-24T20:19:19.741Z,98174.15
2018-07-24T20:21:48.214Z,98170.72
2018-07-24T20:24:16.801Z,98173.34
2018-07-24T20:26:45.366Z,98174.00
2018-07-24T20:29:13.882Z,98176.20
2018-07-24T20:31:43.414Z,98171.14
2018-07-24T20:34:12.156Z,98172.19
2018-07-24T20:36:40.938Z,98176.21
2018-07-24T20:39:11.168Z,98178.55
2018-07-24T20:41:39.989Z,98179.31
2018-07-24T20:44:08.941Z,98182.31
2018-07-24T20:46:37.640Z,98182.53
2018-07-24T20:49:06.423Z,98184.98
2018-07-24T20:51:35.150Z,98185.88
2018-07-24T20:54:03.866Z,98190.41
2018-07-24T20:56:32.484Z,98193.47
2018-07-24T20:59:01.045Z,98187.77
2018-07-24T21:01:29.666Z,98193.63
2018-07-24T21:03:58.179Z,98192.70
2018-07-24T21:06:26.747Z,98190.31
2018-07-24T21:08:55.275Z,98199.30
2018-07-24T21:11:23.862Z,98198.82
2018-07-24T21:13:52.494Z,98206.15
2018-07-24T21:16:21.106Z,98198.53
2018-07-24T21:18:50.219Z,98208.73
2018-07-24T21:21:18.787Z,98205.67
2018-07-24T21:23:47.290Z,98209.08
2018-07-24T21:26:15.910Z,98215.25
2018-07-24T21:28:44.778Z,98210.31
2018-07-24T21:31:13.303Z,98213.97
2018-07-24T21:33:41.790Z,98208.30
2018-07-24T21:36:10.587Z,98214.78
2018-07-24T21:38:39.073Z,98218.98
2018-07-24T21:41:07.673Z,98218.30
2018-07-24T21:43:36.296Z,98215.24
2018-07-24T21:46:04.795Z,98222.27
2018-07-24T21:48:33.330Z,98223.17
2018-07-24T21:51:01.874Z,98228.22
2018-07-24T21:53:30.407Z,98224.59
2018-07-24T21:55:58.933Z,98225.81
2018-07-24T21:58:27.561Z,98226.13
2018-07-24T22:01:01.330Z,98233.80
2018-07-24T22:03:29.866Z,98233.20
2018-07-24T22:05:58.541Z,98232.19
2018-07-24T22:08:27.178Z,98230.97
2018-07-24T22:10:55.781Z,98238.16
2018-07-24T22:13:24.262Z,98242.23
2018-07-24T22:15:52.743Z,98248.53
2018-07-24T22:18:21.287Z,98253.70
2018-07-24T22:20:49.797Z,98247.99
2018-07-24T22:23:18.354Z,98248.91
2018-07-24T22:25:46.966Z,98246.17
2018-07-24T22:28:15.455Z,98244.84
2018-07-24T22:30:43.921Z,98245.42
2018-07-24T22:33:12.490Z,98249.33
2018-07-24T22:35:41.012Z,98248.24
2018-07-24T22:38:09.550Z,98250.51
2018-07-24T22:40:38.126Z,98251.61
2018-07-24T22:43:06.770Z,98255.74
2018-07-24T22:45:35.395Z,98252.54
2018-07-24T22:48:04.083Z,98257.67
2018-07-24T22:50:32.626Z,98254.20
2018-07-24T22:53:01.158Z,98255.98
2018-07-24T22:55:29.718Z,98254.08
2018-07-24T22:57:58.214Z,98252.30
2018-07-24T23:00:29.286Z,98257.17
2018-07-24T23:02:58.001Z,98253.58
2018-07-24T23:05:26.619Z,98247.70
2018-07-24T23:07:55.263Z,98250.70
2018-07-24T23:10:30.273Z,98257.61
2018-07-24T23:12:58.870Z,98255.80
2018-07-24T23:15:27.385Z,98260.27
2018-07-24T23:17:56.958Z,98257.72
2018-07-24T23:20:26.075Z,98257.01
2018-07-24T23:22:54.603Z,98256.75
2018-07-24T23:25:24.589Z,98261.12
2018-07-24T23:27:53.485Z,98262.84
2018-07-24T23:30:22.111Z,98255.66
2018-07-24T23:32:50.590Z,98259.19
2018-07-24T23:35:19.134Z,98255.85
2018-07-24T23:37:47.662Z,98251.59
2018-07-24T23:40:16.250Z,98254.16
2018-07-24T23:42:44.750Z,98258.70
2018-07-24T23:45:13.292Z,98254.03
2018-07-24T23:47:41.860Z,98255.84
2018-07-24T23:50:10.460Z,98264.46
2018-07-24T23:52:39.246Z,98260.41
2018-07-24T23:55:07.835Z,98261.14
2018-07-24T23:57:36.393Z,98256.02
